Data for 11/12/2006

Time Sea-Level Adjusted Pressure Absolute Pressure Temperature Relative Humidity Dew Point   
(mb) (inHg) (mb) (inHg) (C) (F) (%) (C) (F)
00:05 1015 29.97 844 24.92 -3.2 26.3 75 -7.1 19.3
00:10 1015 29.97 844 24.92 -3.2 26.3 75 -6.9 19.5
00:15 1015 29.97 844 24.92 -3.7 25.4 77 -7.2 19.1
00:20 1015 29.97 844 24.92 -3.9 24.9 79 -7 19.4
00:25 1015 29.97 844 24.92 -4 24.7 79 -7.1 19.2
00:30 1015 29.97 844 24.92 -4.1 24.7 81 -6.9 19.6
00:35 1015 29.97 844 24.92 -4.2 24.5 80 -7.2 19
00:40 1015 29.97 844 24.92 -3.9 25.1 79 -7 19.3
00:45 1015 29.97 844 24.92 -3.8 25.1 80 -6.9 19.6
00:50 1015 29.97 844 24.92 -4.1 24.7 81 -6.9 19.5
00:55 1015 29.97 844 24.92 -4.2 24.5 81 -6.9 19.6
01:00 1015 29.97 844 24.92 -4.2 24.4 82 -6.8 19.7
01:05 1015 29.97 844 24.92 -3.8 25.1 77 -7.3 18.9
01:10 1015 29.97 845 24.95 -2.9 26.8 71 -7.4 18.7
01:15 1015 29.97 845 24.95 -2.4 27.7 68 -7.6 18.4
01:20 1015 29.97 845 24.95 -1.9 28.5 66 -7.5 18.5
01:25 1015 29.97 845 24.95 -1.8 28.7 66 -7.3 18.8
01:30 1015 29.97 845 24.95 -1.8 28.8 66 -7.2 19
01:35 1016 30 845 24.95 -1.7 29 67 -7.1 19.2
01:40 1016 30 845 24.95 -1.8 28.8 70 -6.5 20.2
01:45 1016 30 845 24.95 -2.2 28 70 -7 19.4
01:50 1016 30 845 24.95 -2.2 28.1 69 -7.2 19.1
01:55 1016 30 845 24.95 -1.9 28.5 69 -6.9 19.5
02:00 1016 30 845 24.95 -2.5 27.5 75 -6.3 20.7
02:05 1016 30 845 24.95 -4 24.7 79 -7.1 19.2
02:10 1016 30 845 24.95 -3.7 25.4 78 -6.9 19.5
02:15 1016 30 845 24.95 -3.5 25.6 74 -7.5 18.6
02:20 1016 30 845 24.95 -3.5 25.7 78 -6.8 19.7
02:25 1016 30 845 24.95 -3.9 25 80 -6.8 19.8
02:30 1016 30 845 24.95 -3.9 24.9 80 -7 19.5
02:35 1016 30 846 24.98 -4 24.8 78 -7.2 19
02:40 1016 30 846 24.98 -3.8 25.1 77 -7.3 18.9
02:45 1017 30.03 846 24.98 -3.7 25.4 76 -7.3 18.9
02:50 1016 30 846 24.98 -3.8 25.2 79 -6.9 19.5
02:55 1016 30 846 24.98 -4.1 24.7 80 -7.1 19.3
03:00 1016 30 846 24.98 -4.3 24.2 79 -7.5 18.6
03:05 1016 30 845 24.95 -4.3 24.3 78 -7.5 18.4
03:10 1016 30 845 24.95 -4.2 24.5 77 -7.7 18.2
03:15 1016 30 845 24.95 -4.1 24.7 76 -7.8 18
03:20 1016 30 846 24.98 -4.1 24.7 75 -7.8 17.9
03:25 1017 30.03 846 24.98 -4.1 24.6 74 -8 17.6
03:30 1017 30.03 846 24.98 -4.2 24.4 78 -7.6 18.4
03:35 1017 30.03 846 24.98 -4.4 24.1 79 -7.6 18.4
03:40 1017 30.03 846 24.98 -4.2 24.4 75 -7.9 17.7
03:45 1017 30.03 846 24.98 -3.9 25 75 -7.7 18.1
03:50 1017 30.03 846 24.98 -3.8 25.2 74 -7.8 17.9
03:55 1017 30.03 846 24.98 -3.7 25.3 72 -8 17.6
04:00 1017 30.03 846 24.98 -3.7 25.4 73 -7.8 17.9
04:05 1017 30.03 846 24.98 -3.8 25.1 74 -7.9 17.8
04:10 1017 30.03 846 24.98 -4.2 24.5 75 -8 17.5
04:15 1017 30.03 846 24.98 -4 24.8 74 -8 17.5
04:20 1017 30.03 846 24.98 -3.8 25.2 74 -7.8 17.9
04:25 1017 30.03 846 24.98 -3.4 25.8 71 -7.9 17.8
04:30 1017 30.03 846 24.98 -3.1 26.4 70 -7.9 17.8
04:35 1017 30.03 846 24.98 -3.1 26.4 70 -7.8 17.9
04:40 1017 30.03 846 24.98 -3.3 26 70 -8.1 17.5
04:45 1017 30.03 846 24.98 -3.5 25.7 71 -8.1 17.4
04:50 1017 30.03 846 24.98 -3.8 25.1 71 -8.4 16.9
04:55 1017 30.03 846 24.98 -3.7 25.4 68 -8.7 16.4
05:00 1017 30.03 846 24.98 -3.5 25.6 67 -8.9 16
05:05 1017 30.03 846 24.98 -3.5 25.6 66 -9.1 15.7
05:10 1017 30.03 846 24.98 -3.5 25.8 65 -9.1 15.5
05:15 1017 30.03 846 24.98 -3.2 26.2 63 -9.3 15.2
05:20 1017 30.03 846 24.98 -3.2 26.2 62 -9.5 15
05:25 1017 30.03 847 25.01 -3.7 25.3 65 -9.5 14.9
05:30 1017 30.03 847 25.01 -4.2 24.5 68 -9.3 15.3
05:35 1017 30.03 847 25.01 -4.4 24.2 70 -9 15.8
05:40 1017 30.03 847 25.01 -4.6 23.7 71 -9 15.8
05:45 1017 30.03 847 25.01 -4.4 24.1 72 -8.7 16.4
05:50 1017 30.03 847 25.01 -4.3 24.2 73 -8.5 16.7
05:55 1017 30.03 847 25.01 -4.6 23.8 75 -8.3 17
06:00 1017 30.03 847 25.01 -4.8 23.3 75 -8.6 16.6
06:05 1017 30.03 847 25.01 -5 23.1 74 -8.9 16.1
06:10 1017 30.03 847 25.01 -4.9 23.1 75 -8.7 16.3
06:15 1017 30.03 847 25.01 -5 23.1 75 -8.7 16.4
06:20 1017 30.03 847 25.01 -4.6 23.7 74 -8.5 16.6
06:25 1017 30.03 847 25.01 -4.2 24.4 73 -8.4 16.8
06:30 1018 30.06 847 25.01 -4 24.9 71 -8.4 16.8
06:35 1017 30.03 847 25.01 -4 24.7 72 -8.4 16.9
06:40 1018 30.06 847 25.01 -4 24.8 72 -8.4 17
06:45 1018 30.06 847 25.01 -3.8 25.2 71 -8.4 16.9
06:50 1018 30.06 847 25.01 -3.6 25.6 67 -8.8 16.1
06:55 1018 30.06 847 25.01 -3.6 25.5 67 -9 15.8
07:00 1018 30.06 847 25.01 -3.5 25.8 68 -8.6 16.5
07:05 1018 30.06 847 25.01 -3.6 25.6 68 -8.6 16.5
07:10 1018 30.06 847 25.01 -3.9 25 69 -8.7 16.3
07:15 1018 30.06 847 25.01 -4.3 24.3 72 -8.6 16.5
07:20 1018 30.06 847 25.01 -4.2 24.5 70 -8.9 16
07:25 1018 30.06 847 25.01 -4 24.7 68 -9.1 15.7
07:30 1018 30.06 847 25.01 -4 24.7 68 -9.2 15.5
07:35 1018 30.06 847 25.01 -4.1 24.7 67 -9.3 15.3
07:40 1018 30.06 847 25.01 -4 24.8 67 -9.1 15.5
07:45 1018 30.06 847 25.01 -3.9 24.9 68 -9 15.7
07:50 1018 30.06 847 25.01 -3.8 25.1 68 -8.9 16
07:55 1018 30.06 847 25.01 -3.3 26 65 -9.1 15.7
08:00 1018 30.06 847 25.01 -3.1 26.3 65 -8.9 16
08:05 1018 30.06 847 25.01 -2.8 26.9 64 -8.7 16.4
08:10 1018 30.06 847 25.01 -2.6 27.4 62 -8.9 16.1
08:15 1018 30.06 847 25.01 -2.6 27.3 63 -8.7 16.4
08:20 1018 30.06 848 25.04 -2.7 27.2 63 -8.8 16.1
08:25 1018 30.06 848 25.04 -2.8 27 62 -9.1 15.6
08:30 1018 30.06 848 25.04 -2.5 27.5 60 -9.2 15.5
08:35 1018 30.06 847 25.01 -2.4 27.6 62 -8.7 16.3
08:40 1018 30.06 848 25.04 -2.1 28.2 62 -8.4 16.9
08:45 1018 30.06 847 25.01 -2 28.4 59 -9 15.8
08:50 1018 30.06 847 25.01 -2 28.4 59 -8.9 15.9
08:55 1018 30.06 848 25.04 -2.1 28.3 62 -8.5 16.7
09:00 1018 30.06 848 25.04 -2.2 28.1 61 -8.6 16.5
09:05 1018 30.06 848 25.04 -2 28.4 60 -8.7 16.3
09:10 1018 30.06 848 25.04 -1.7 29 58 -8.9 16
09:15 1018 30.06 848 25.04 -1.3 29.7 57 -8.7 16.3
09:20 1018 30.06 848 25.04 -1.2 29.9 57 -8.7 16.4
09:25 1018 30.06 848 25.04 -0.9 30.4 55 -8.8 16.2
09:30 1019 30.09 848 25.04 -0.1 31.8 52 -8.8 16.1
09:35 1019 30.09 848 25.04 0.2 32.4 50 -9.1 15.7
09:40 1019 30.09 848 25.04 0.8 33.5 54 -7.5 18.5
09:45 1019 30.09 848 25.04 1.5 34.8 47 -8.6 16.5
09:50 1019 30.09 848 25.04 2.1 35.9 43 -9.2 15.5
09:55 1019 30.09 848 25.04 2.6 36.7 43 -8.8 16.1
10:00 1019 30.09 848 25.04 2.7 36.8 43 -8.8 16.2
10:05 1019 30.09 848 25.04 2.7 36.8 42 -8.9 15.9
10:10 1019 30.09 848 25.04 2.8 37 42 -8.8 16.1
10:15 1019 30.09 848 25.04 3.1 37.5 42 -8.5 16.7
10:20 1019 30.09 848 25.04 3 37.4 42 -8.7 16.4
10:25 1019 30.09 848 25.04 2.3 36.2 46 -8.2 17.2
10:30 1019 30.09 848 25.04 1.7 35.1 47 -8.4 16.8
10:35 1019 30.09 848 25.04 1.7 35.1 46 -8.6 16.4
10:40 1019 30.09 848 25.04 1.8 35.3 46 -8.5 16.7
10:45 1019 30.09 848 25.04 2.4 36.3 45 -8.4 16.9
10:50 1019 30.09 848 25.04 2.4 36.3 43 -8.9 15.9
10:55 1019 30.09 848 25.04 2.1 35.8 46 -8.3 17.1
11:00 1019 30.09 848 25.04 2.6 36.7 44 -8.5 16.6
11:05 1019 30.09 848 25.04 2.7 36.9 43 -8.5 16.7
11:10 1019 30.09 848 25.04 2.9 37.2 42 -8.9 16
11:15 1019 30.09 848 25.04 2.7 36.8 44 -8.4 16.9
11:20 1018 30.06 848 25.04 3.2 37.8 43 -8.2 17.3
11:25 1018 30.06 848 25.04 3.3 38 43 -8 17.6
11:30 1018 30.06 847 25.01 2.9 37.2 42 -8.7 16.4
11:35 1018 30.06 847 25.01 3.3 37.9 42 -8.4 16.9
11:40 1018 30.06 847 25.01 3.2 37.8 41 -8.9 16
11:45 1018 30.06 847 25.01 3.1 37.6 37 -10.3 13.5
11:50 1018 30.06 847 25.01 3 37.4 38 -9.9 14.2
11:55 1018 30.06 847 25.01 3 37.5 40 -9.4 15.1
12:00 1018 30.06 847 25.01 3.4 38 38 -9.7 14.5
12:05 1018 30.06 847 25.01 3.2 37.7 39 -9.4 15
12:10 1018 30.06 847 25.01 3.3 37.9 37 -10.1 13.9
12:15 1018 30.06 847 25.01 4 39.3 39 -8.7 16.4
12:20 1018 30.06 847 25.01 4.9 40.8 39 -8 17.6
12:25 1017 30.03 847 25.01 4.7 40.5 37 -8.8 16.2
12:30 1017 30.03 847 25.01 4.5 40.2 38 -8.5 16.7
12:35 1017 30.03 847 25.01 4.5 40 37 -8.8 16.1
12:40 1017 30.03 846 24.98 4.2 39.5 39 -8.7 16.3
12:45 1017 30.03 846 24.98 3.9 39.1 36 -9.7 14.5
12:50 1017 30.03 846 24.98 4.2 39.5 37 -9.4 15.1
12:55 1017 30.03 846 24.98 4.4 39.9 38 -8.8 16.2
13:00 1017 30.03 846 24.98 4.4 39.9 36 -9.4 15.1
13:05 1017 30.03 846 24.98 4.8 40.6 35 -9.5 14.9
13:10 1017 30.03 846 24.98 5 41.1 33 -9.8 14.4
13:15 1017 30.03 846 24.98 4.7 40.5 34 -9.8 14.4
13:20 1017 30.03 846 24.98 4.7 40.5 35 -9.4 15.2
13:25 1017 30.03 846 24.98 5.2 41.3 34 -9.3 15.2
13:30 1017 30.03 846 24.98 5.3 41.6 33 -9.6 14.7
13:35 1016 30 846 24.98 5.5 41.8 31 -10.3 13.4
13:40 1016 30 846 24.98 5.4 41.7 32 -10.1 13.8
13:45 1016 30 846 24.98 6.2 43.1 32 -9.5 15
13:50 1016 30 846 24.98 6.7 44 32 -8.8 16.2
13:55 1016 30 846 24.98 6.5 43.6 33 -8.6 16.6
14:00 1016 30 846 24.98 5.6 42.2 32 -9.7 14.5
14:05 1016 30 846 24.98 5.2 41.4 33 -9.9 14.2
14:10 1016 30 846 24.98 5 41 33 -10.1 13.9
14:15 1016 30 846 24.98 5.5 41.9 33 -9.5 14.9
14:20 1016 30 846 24.98 6 42.8 32 -9.6 14.8
14:25 1016 30 845 24.95 5.8 42.4 32 -9.9 14.3
14:30 1016 30 846 24.98 5.5 41.8 33 -9.6 14.7
14:35 1016 30 845 24.95 4.9 40.9 33 -10 13.9
14:40 1016 30 845 24.95 4.9 40.8 34 -9.7 14.6
14:45 1016 30 845 24.95 5.3 41.5 31 -10.4 13.2
14:50 1016 30 845 24.95 5.4 41.6 31 -10.4 13.3
14:55 1016 30 845 24.95 5.7 42.3 29 -10.8 12.6
15:00 1016 30 845 24.95 5.9 42.6 29 -10.8 12.5
15:05 1016 30 845 24.95 6.1 42.9 29 -10.6 12.9
15:10 1016 30 845 24.95 6.2 43.1 29 -10.4 13.2
15:15 1016 30 845 24.95 6.3 43.4 31 -9.7 14.6
15:20 1016 30 845 24.95 6.1 43 31 -9.6 14.7
15:25 1016 30 845 24.95 5.5 41.9 32 -9.9 14.2
15:30 1016 30 845 24.95 5.8 42.4 31 -10.3 13.5
15:35 1016 30 845 24.95 5.4 41.7 31 -10.5 13.1
15:40 1016 30 845 24.95 5 41.1 33 -10.1 13.8
15:45 1016 30 845 24.95 5.4 41.6 32 -10.1 13.8
15:50 1016 30 845 24.95 5.3 41.6 34 -9.4 15.1
15:55 1016 30 845 24.95 5.1 41.2 33 -10 13.9
16:00 1016 30 845 24.95 4.9 40.9 34 -9.8 14.4
16:05 1016 30 845 24.95 4.5 40.1 35 -9.6 14.7
16:10 1016 30 845 24.95 4.4 39.9 34 -10.1 13.7
16:15 1016 30 845 24.95 4.3 39.7 35 -9.9 14.2
16:20 1016 30 845 24.95 3.9 39.1 33 -10.8 12.6
16:25 1016 30 845 24.95 3.9 39 34 -10.6 12.9
16:30 1016 30 845 24.95 3.7 38.6 35 -10.5 13.1
16:35 1016 30 845 24.95 3.8 38.8 32 -11.6 11.1
16:40 1016 30 845 24.95 3.6 38.5 34 -11 12.2
16:45 1016 30 845 24.95 3.4 38.1 33 -11.3 11.7
16:50 1016 30 845 24.95 3.3 38 35 -10.8 12.5
16:55 1016 30 845 24.95 3.1 37.6 36 -10.7 12.7
17:00 1016 30 845 24.95 3 37.3 36 -10.5 13
17:05 1016 30 845 24.95 2.7 36.9 38 -10.2 13.6
17:10 1016 30 845 24.95 2.4 36.3 40 -9.8 14.4
17:15 1016 30 845 24.95 2.5 36.4 37 -10.9 12.5
17:20 1016 30 845 24.95 2.3 36.2 38 -10.5 13
17:25 1016 30 845 24.95 2.1 35.7 40 -10.3 13.4
17:30 1016 30 845 24.95 2 35.6 37 -11.2 11.8
17:35 1016 30 845 24.95 2.1 35.8 37 -11.2 11.8
17:40 1016 30 845 24.95 2.1 35.8 38 -10.8 12.6
17:45 1016 30 845 24.95 2.1 35.7 37 -11.2 11.8
17:50 1016 30 845 24.95 2.3 36.2 35 -11.7 11
17:55 1016 30 845 24.95 2.2 35.9 35 -11.7 10.9
18:00 1016 30 845 24.95 2.4 36.4 33 -12.3 9.9
18:05 1015 29.97 845 24.95 2.6 36.7 33 -12.2 10
18:10 1015 29.97 845 24.95 2.5 36.5 32 -12.5 9.6
18:15 1015 29.97 844 24.92 2.6 36.7 32 -12.4 9.8
18:20 1015 29.97 844 24.92 2.5 36.6 34 -11.8 10.8
18:25 1015 29.97 844 24.92 2.3 36.2 34 -12 10.4
18:30 1015 29.97 844 24.92 2.2 36 34 -12 10.4
18:35 1015 29.97 844 24.92 2.1 35.9 33 -12.6 9.3
18:40 1015 29.97 844 24.92 2.1 35.7 33 -12.8 9
18:45 1015 29.97 844 24.92 2.2 36 32 -12.7 9.2
18:50 1015 29.97 844 24.92 2.2 36 32 -12.9 8.7
18:55 1015 29.97 844 24.92 2.3 36.1 32 -12.7 9.1
19:00 1015 29.97 844 24.92 2.2 35.9 31 -13.2 8.3
19:05 1014 29.94 844 24.92 2.4 36.3 33 -12.5 9.5
19:10 1014 29.94 844 24.92 2.3 36.2 35 -11.8 10.8
19:15 1014 29.94 843 24.89 2 35.6 33 -12.7 9.1
19:20 1014 29.94 843 24.89 1.7 35 34 -12.6 9.2
19:25 1014 29.94 843 24.89 1.3 34.3 34 -12.8 9
19:30 1014 29.94 843 24.89 1.2 34.2 34 -13 8.7
19:35 1014 29.94 843 24.89 1.2 34.1 36 -12.3 9.9
19:40 1014 29.94 843 24.89 1 33.9 36 -12.3 9.8
19:45 1014 29.94 843 24.89 1.1 34 35 -12.8 9
19:50 1014 29.94 843 24.89 1.3 34.3 36 -12.4 9.7
19:55 1014 29.94 843 24.89 1.4 34.6 37 -11.7 10.9
20:00 1014 29.94 843 24.89 1 33.8 35 -12.9 8.8
20:05 1013 29.91 843 24.89 0.7 33.3 37 -12.5 9.5
20:10 1013 29.91 843 24.89 0.6 33 38 -12.1 10.2
20:15 1013 29.91 842 24.86 0.4 32.7 38 -12.2 10
20:20 1013 29.91 842 24.86 0.5 32.9 38 -12.2 10
20:25 1013 29.91 842 24.86 0.4 32.7 40 -11.8 10.8
20:30 1013 29.91 842 24.86 0.3 32.6 36 -13.1 8.4
20:35 1013 29.91 842 24.86 0.7 33.3 38 -12.2 10.1
20:40 1013 29.91 842 24.86 0.9 33.7 35 -12.8 9
20:45 1013 29.91 842 24.86 0.9 33.7 35 -12.8 8.9
20:50 1013 29.91 842 24.86 0.8 33.4 39 -11.5 11.2
20:55 1013 29.91 842 24.86 0.4 32.7 40 -11.6 11.1
21:00 1013 29.91 842 24.86 -0.1 31.9 40 -12.2 10
21:05 1013 29.91 842 24.86 0.1 32.2 40 -12.1 10.2
21:10 1013 29.91 842 24.86 -0 31.9 41 -11.7 11
21:15 1013 29.91 842 24.86 -0.3 31.4 42 -11.8 10.7
21:20 1013 29.91 842 24.86 -0.3 31.4 44 -11.3 11.7
21:25 1013 29.91 842 24.86 -0.4 31.3 42 -11.9 10.6
21:30 1013 29.91 842 24.86 -0.2 31.7 45 -10.8 12.5
21:35 1013 29.91 842 24.86 -0.1 31.7 44 -11.1 12.1
21:40 1013 29.91 842 24.86 0.1 32.2 44 -10.6 12.8
21:45 1013 29.91 842 24.86 -0.4 31.3 43 -11.6 11.1
21:50 1012 29.88 842 24.86 0.2 32.4 37 -12.8 8.9
21:55 1012 29.88 841 24.83 0.9 33.7 35 -12.8 9
22:00 1012 29.88 841 24.83 1.1 34 36 -12.3 9.9
22:05 1012 29.88 841 24.83 1.2 34.1 36 -12.2 10
22:10 1012 29.88 841 24.83 1.4 34.6 36 -12 10.4
22:15 1012 29.88 841 24.83 1.6 34.8 34 -12.6 9.4
22:20 1012 29.88 841 24.83 1.6 34.9 34 -12.7 9.1
22:25 1012 29.88 841 24.83 1.7 35 34 -12.7 9.2
22:30 1012 29.88 841 24.83 1.6 34.8 35 -12.4 9.8
22:35 1012 29.88 841 24.83 1.5 34.7 34 -12.6 9.3
22:40 1012 29.88 841 24.83 1.7 35 34 -12.5 9.4
22:45 1011 29.85 841 24.83 1.5 34.7 35 -12.3 9.9
22:50 1011 29.85 841 24.83 1.3 34.3 36 -12.3 9.8
22:55 1011 29.85 841 24.83 1.3 34.4 36 -12.2 10.1
23:00 1012 29.88 841 24.83 1.3 34.4 40 -10.7 12.8
23:05 1012 29.88 841 24.83 1.1 33.9 41 -10.6 12.9
23:10 1011 29.85 841 24.83 1.1 33.9 39 -11.4 11.5
23:15 1011 29.85 841 24.83 1.2 34.1 39 -11.3 11.6
23:20 1011 29.85 841 24.83 1.6 34.8 38 -11.3 11.7
23:25 1011 29.85 840 24.81 2.1 35.7 37 -11.2 11.9
23:30 1011 29.85 840 24.81 2.2 35.9 38 -10.8 12.6
23:35 1011 29.85 840 24.81 2 35.6 37 -11.2 11.8
23:40 1011 29.85 840 24.81 1.9 35.3 38 -11.2 11.9
23:45 1011 29.85 840 24.81 1.7 35.1 37 -11.5 11.3
23:50 1011 29.85 840 24.81 1.8 35.2 36 -11.7 11
23:55 1011 29.85 840 24.81 1.8 35.3 38 -11.2 11.9
24:00 1011 29.85 840 24.81 1.8 35.2 36 -11.9 10.5